• Join FlightAware (Why Join?)
  • Login
  • US Flag 
02:37AM EST


 

Airport Tracker/Info


-or-


 

Live Flight TrackerFlight Track Log ✈ EGF4065 ✈ 11-Jun-2013 ✈ KORD - KCMI

Flight Track Log - Related Links

Times and Time Zones

All times are in EDT time to prevent confusion due to time zone crossing. See the EGF4065 flight status page for this flight to view local times or setup timezone preferences in your user account.

Time Position Orientation Groundspeed Altitude Reporting Facility
EDT Latitude Longitude Course Direction KTS MPH feet Rate Location/Type
11:35AM 41.9833 -87.9667 188° South 188 216 2,800  Level Chicago TRACON
11:36AM 41.9333 -88.0167 217° Southwest 238 274 4,800 1,860 Climbing Chicago TRACON
11:37AM 41.7163 -87.9587 180° South  Level Estimated
11:37AM 41.8583 -88.0031 172° South 264 304 6,800  Level Chicago Center
11:38AM 41.6279 -87.9759 192° South  Level Estimated
11:38AM 41.7875 -87.9564 154° Southeast 279 321 8,900  Level Chicago Center
11:39AM 41.5395 -87.9931 189° South  Level Estimated
11:39AM 41.6872 -87.9542 179° South 312 359 11,200  Level Chicago Center
11:40AM 41.4510 -88.0101 188° South  Level FlightAware Approximate
11:40AM 41.5936 -87.9722 188° South 338 389 12,300  Level Chicago Center
11:41AM 41.4914 -87.9933 189° South 366 421 13,800 1,500 Climbing Chicago Center
11:42AM 41.3822 -88.0150 188° South 375 432 15,400 1,320 Climbing Chicago Center
11:43AM 41.2739 -88.0367 189° South 385 443 16,600 720 Climbing Chicago Center
11:44AM 41.1617 -88.0586 188° South 403 464 17,000 120 Climbing Chicago Center
11:45AM 41.0444 -88.0825 189° South 423 487 16,900 -660 Descending Chicago Center
11:46AM 40.9294 -88.1044 188° South 422 486 15,700 -1,260 Descending Chicago Center
11:47AM 40.8133 -88.1275 189° South 423 487 14,300 -1,860 Descending Chicago Center
11:48AM 40.6825 -88.1619 191° South 404 465 12,000 -1,620 Descending Chicago Center
11:49AM 40.5867 -88.1992 196° South 367 422 11,000 -540 Descending Chicago Center
11:50AM 40.4886 -88.2339 195° South 364 419 11,000 -300 Level Chicago Center
11:51AM 40.3944 -88.2697 196° South 357 411 10,500 -1,140 Descending Chicago Center
11:52AM 40.3167 -88.2911 192° South 301 346 8,700 -2,520 Descending Chicago Center
11:53AM 40.2289 -88.3125 191° South 273 314 5,400 -3,240 Descending Chicago Center